createdAt,value
2023-10-18T00:00:55.016Z,-23338.22
2023-10-18T00:02:58.212Z,-23337.56
2023-10-18T00:05:06.768Z,-23337.56
2023-10-18T00:07:12.882Z,-23341.06
2023-10-18T00:09:33.206Z,-23341.56
2023-10-18T00:11:36.415Z,-23341.88
2023-10-18T00:13:39.812Z,-23341.06
2023-10-18T00:15:41.615Z,-23339.50
2023-10-18T00:17:45.321Z,-23341.06
2023-10-18T00:19:48.337Z,-23340.44
2023-10-18T00:21:52.290Z,-23340.44
2023-10-18T00:23:55.624Z,-23341.06
2023-10-18T00:26:01.248Z,-23340.75
2023-10-18T00:28:05.032Z,-23338.84
2023-10-18T00:30:09.359Z,-23338.22
2023-10-18T00:32:12.546Z,-23339.81
2023-10-18T00:34:15.461Z,-23341.56
2023-10-18T00:36:18.729Z,-23335.03
2023-10-18T00:38:25.530Z,-23332.47
2023-10-18T00:40:38.925Z,-23332.81
2023-10-18T00:42:45.795Z,-23334.72
2023-10-18T00:44:53.215Z,-23334.72
2023-10-18T00:46:56.941Z,-23334.41
2023-10-18T00:49:00.792Z,-23340.75
2023-10-18T00:51:04.797Z,-23336.16
2023-10-18T00:53:07.331Z,-23337.25
2023-10-18T00:55:11.851Z,-23336.94
2023-10-18T00:57:16.407Z,-23335.66
2023-10-18T00:59:22.583Z,-23337.25
2023-10-18T01:01:24.544Z,-23335.34
2023-10-18T01:03:33.842Z,-23337.75
2023-10-18T01:05:37.056Z,-23335.34
2023-10-18T01:07:40.257Z,-23335.97
2023-10-18T01:09:48.850Z,-23336.78
2023-10-18T01:11:53.337Z,-23338.69
2023-10-18T01:13:57.368Z,-23336.63
2023-10-18T01:16:00.616Z,-23338.53
2023-10-18T01:18:03.448Z,-23338.06
2023-10-18T01:20:26.487Z,-23334.72
2023-10-18T01:22:31.928Z,-23334.06
2023-10-18T01:24:36.866Z,-23336.63
2023-10-18T01:26:40.339Z,-23335.03
2023-10-18T01:28:43.392Z,-23335.97
2023-10-18T01:30:46.758Z,-23335.19
2023-10-18T01:32:50.137Z,-23337.75
2023-10-18T01:34:52.932Z,-23335.97
2023-10-18T01:36:57.849Z,-23334.56
2023-10-18T01:39:01.350Z,-23332.16
2023-10-18T01:41:10.565Z,-23332.16
2023-10-18T01:43:13.415Z,-23330.09
2023-10-18T01:45:23.092Z,-23326.28
2023-10-18T01:47:25.822Z,-23323.25
2023-10-18T01:49:29.177Z,-23324.53
2023-10-18T01:51:32.043Z,-23327.38
2023-10-18T01:53:34.759Z,-23329.16
2023-10-18T01:55:38.848Z,-23331.22
2023-10-18T01:57:45.267Z,-23331.53
2023-10-18T01:59:49.261Z,-23327.72
2023-10-18T02:01:53.010Z,-23329.47
2023-10-18T02:03:58.972Z,-23329.78
2023-10-18T02:06:00.850Z,-23331.22
2023-10-18T02:08:03.634Z,-23331.84
2023-10-18T02:10:07.744Z,-23331.84
2023-10-18T02:12:10.788Z,-23331.38
2023-10-18T02:14:15.062Z,-23333.91
2023-10-18T02:16:20.537Z,-23338.22
2023-10-18T02:18:24.006Z,-23338.84
2023-10-18T02:20:29.467Z,-23335.97
2023-10-18T02:22:32.160Z,-23333.75
2023-10-18T02:24:34.864Z,-23335.34
2023-10-18T02:26:40.843Z,-23334.06
2023-10-18T02:28:44.342Z,-23334.06
2023-10-18T02:30:48.371Z,-23331.38
2023-10-18T02:32:51.200Z,-23333.75
2023-10-18T02:34:54.013Z,-23329.94
2023-10-18T02:36:59.385Z,-23329.63
2023-10-18T02:39:01.499Z,-23327.72
2023-10-18T02:41:16.289Z,-23331.69
2023-10-18T02:43:19.016Z,-23331.22
2023-10-18T02:45:23.460Z,-23329.94
2023-10-18T02:47:27.689Z,-23327.22
2023-10-18T02:49:30.557Z,-23328.34
2023-10-18T02:51:33.438Z,-23329.78
2023-10-18T02:53:41.530Z,-23329.94
2023-10-18T02:55:49.097Z,-23334.06
2023-10-18T02:57:53.775Z,-23333.91
2023-10-18T02:59:57.925Z,-23334.72
2023-10-18T03:02:02.660Z,-23337.09
2023-10-18T03:04:09.233Z,-23331.53
2023-10-18T03:06:15.366Z,-23333.75
2023-10-18T03:08:22.073Z,-23335.34
2023-10-18T03:10:33.714Z,-23335.34
2023-10-18T03:12:37.451Z,-23331.69
2023-10-18T03:14:42.347Z,-23329.63
2023-10-18T03:16:48.318Z,-23329.31
2023-10-18T03:18:51.122Z,-23328.97
2023-10-18T03:20:57.132Z,-23331.38
2023-10-18T03:23:04.193Z,-23332.47
2023-10-18T03:25:11.843Z,-23331.84
2023-10-18T03:27:14.698Z,-23333.91
2023-10-18T03:29:17.714Z,-23330.09
2023-10-18T03:31:28.384Z,-23334.06
2023-10-18T03:33:33.447Z,-23331.06
2023-10-18T03:35:40.418Z,-23329.94
2023-10-18T03:37:47.376Z,-23328.81
2023-10-18T03:39:54.245Z,-23331.22
2023-10-18T03:41:59.821Z,-23328.03
2023-10-18T03:44:07.722Z,-23329.63
2023-10-18T03:46:15.068Z,-23333.75
2023-10-18T03:48:25.309Z,-23330.56
2023-10-18T03:50:36.897Z,-23323.91
2023-10-18T03:52:39.810Z,-23327.06
2023-10-18T03:54:47.064Z,-23328.19
2023-10-18T03:56:53.074Z,-23326.13
2023-10-18T03:59:04.883Z,-23326.75
2023-10-18T04:01:11.888Z,-23322.94
2023-10-18T04:03:18.171Z,-23321.03
2023-10-18T04:05:32.017Z,-23319.09
2023-10-18T04:07:36.339Z,-23320.88
2023-10-18T04:09:38.466Z,-23320.22
2023-10-18T04:11:42.747Z,-23317.19
2023-10-18T04:13:45.508Z,-23319.91
2023-10-18T04:15:51.111Z,-23320.53
2023-10-18T04:18:04.335Z,-23322.94
2023-10-18T04:20:23.495Z,-23321.97
2023-10-18T04:22:28.972Z,-23318.31
2023-10-18T04:24:33.235Z,-23315.94
2023-10-18T04:26:36.083Z,-23315.59
2023-10-18T04:28:40.445Z,-23319.44
2023-10-18T04:30:43.696Z,-23316.25
2023-10-18T04:32:46.885Z,-23318.78
2023-10-18T04:34:50.081Z,-23314.97
2023-10-18T04:36:55.884Z,-23313.22
2023-10-18T04:38:58.742Z,-23313.69
2023-10-18T04:41:08.726Z,-23312.91
2023-10-18T04:43:11.923Z,-23313.06
2023-10-18T04:45:18.368Z,-23316.41
2023-10-18T04:47:25.531Z,-23315.59
2023-10-18T04:49:37.850Z,-23313.06
2023-10-18T04:51:46.493Z,-23314.34
2023-10-18T04:53:50.569Z,-23311.16
2023-10-18T04:55:54.228Z,-23309.56
2023-10-18T04:57:56.110Z,-23310.19
2023-10-18T05:00:11.910Z,-23305.75
2023-10-18T05:02:18.663Z,-23312.09
2023-10-18T05:04:21.565Z,-23307.97
2023-10-18T05:06:30.055Z,-23309.56
2023-10-18T05:08:37.569Z,-23311.47
2023-10-18T05:10:46.197Z,-23312.75
2023-10-18T05:12:49.706Z,-23312.25
2023-10-18T05:15:08.061Z,-23311.78
2023-10-18T05:17:18.584Z,-23306.84
2023-10-18T05:19:29.816Z,-23312.59
2023-10-18T05:21:33.085Z,-23314.81
2023-10-18T05:23:37.260Z,-23310.50
2023-10-18T05:25:46.766Z,-23308.59
2023-10-18T05:28:00.842Z,-23309.88
2023-10-18T05:30:15.826Z,-23303.81
2023-10-18T05:32:50.289Z,-23305.41
2023-10-18T05:35:12.412Z,-23303.50
2023-10-18T05:37:16.054Z,-23302.56
2023-10-18T05:39:29.251Z,-23303.34
2023-10-18T05:41:37.260Z,-23307.50
2023-10-18T05:43:43.886Z,-23304.78
2023-10-18T05:45:45.834Z,-23303.50
2023-10-18T05:47:55.390Z,-23303.97
2023-10-18T05:50:00.890Z,-23306.06
2023-10-18T05:52:17.648Z,-23306.69
2023-10-18T05:54:25.685Z,-23304.78
2023-10-18T05:56:32.700Z,-23306.84
2023-10-18T05:58:35.568Z,-23310.19
2023-10-18T06:00:38.321Z,-23308.28
2023-10-18T06:02:41.122Z,-23312.59
2023-10-18T06:04:44.766Z,-23312.91
2023-10-18T06:06:48.974Z,-23314.34
2023-10-18T06:08:51.728Z,-23314.66
2023-10-18T06:11:07.902Z,-23314.66
2023-10-18T06:13:12.217Z,-23318.16
2023-10-18T06:15:17.615Z,-23319.09
2023-10-18T06:17:23.793Z,-23316.88
2023-10-18T06:19:30.608Z,-23313.06
2023-10-18T06:21:39.195Z,-23316.56
2023-10-18T06:23:43.367Z,-23320.22
2023-10-18T06:25:46.701Z,-23322.78
2023-10-18T06:27:51.577Z,-23321.66
2023-10-18T06:29:55.218Z,-23322.94
2023-10-18T06:31:58.171Z,-23324.84
2023-10-18T06:34:03.953Z,-23327.38
2023-10-18T06:36:13.209Z,-23328.03
2023-10-18T06:38:18.983Z,-23330.56
2023-10-18T06:40:22.969Z,-23337.25
2023-10-18T06:42:28.040Z,-23332.97
2023-10-18T06:44:31.769Z,-23339.16
2023-10-18T06:46:35.403Z,-23341.41
2023-10-18T06:48:39.188Z,-23337.56
2023-10-18T06:50:42.406Z,-23339.50
2023-10-18T06:52:53.939Z,-23339.66
2023-10-18T06:54:57.229Z,-23336.78
2023-10-18T06:57:10.845Z,-23341.72
2023-10-18T06:59:14.556Z,-23340.75
2023-10-18T07:01:22.074Z,-23334.56
2023-10-18T07:03:28.748Z,-23343.94
2023-10-18T07:05:32.567Z,-23347.75
2023-10-18T07:07:35.260Z,-23341.41
2023-10-18T07:09:38.156Z,-23349.66
2023-10-18T07:11:52.007Z,-23356.84
2023-10-18T07:13:57.065Z,-23355.41
2023-10-18T07:16:03.030Z,-23354.44
2023-10-18T07:18:15.170Z,-23358.44
2023-10-18T07:20:18.002Z,-23361.75
2023-10-18T07:22:22.304Z,-23364.94
2023-10-18T07:24:26.232Z,-23360.81
2023-10-18T07:26:30.333Z,-23365.56
2023-10-18T07:28:36.583Z,-23360.16
2023-10-18T07:30:45.886Z,-23365.44
2023-10-18T07:32:59.128Z,-23364.31
2023-10-18T07:35:02.116Z,-23363.66
2023-10-18T07:37:18.666Z,-23367.34
2023-10-18T07:39:25.410Z,-23376.06
2023-10-18T07:41:28.594Z,-23381.47
2023-10-18T07:43:33.567Z,-23389.09
2023-10-18T07:45:36.738Z,-23399.28
2023-10-18T07:47:40.827Z,-23404.19
2023-10-18T07:49:46.446Z,-23400.72
2023-10-18T07:51:57.014Z,-23397.69
2023-10-18T07:54:01.060Z,-23411.03
2023-10-18T07:56:04.742Z,-23410.56
2023-10-18T07:58:18.950Z,-23418.34
2023-10-18T08:00:27.736Z,-23413.72
2023-10-18T08:02:31.799Z,-23423.25
2023-10-18T08:04:37.854Z,-23435.47
2023-10-18T08:06:40.756Z,-23440.41
2023-10-18T08:08:43.433Z,-23444.06
2023-10-18T08:10:46.385Z,-23444.06
2023-10-18T08:13:05.523Z,-23443.91
2023-10-18T08:15:15.213Z,-23456.13
2023-10-18T08:17:44.213Z,-23457.38
2023-10-18T08:19:57.216Z,-23442.16
2023-10-18T08:22:05.944Z,-23461.03
2023-10-18T08:24:10.201Z,-23464.69
2023-10-18T08:26:13.789Z,-23472.13
2023-10-18T08:28:16.652Z,-23464.38
2023-10-18T08:30:25.777Z,-23463.09
2023-10-18T08:32:31.320Z,-23449.44
2023-10-18T08:34:35.691Z,-23456.91
2023-10-18T08:36:40.104Z,-23455.16
2023-10-18T08:38:43.302Z,-23451.03
2023-10-18T08:40:46.715Z,-23461.97
2023-10-18T08:42:53.526Z,-23472.91
2023-10-18T08:44:56.685Z,-23491.63
2023-10-18T08:47:15.867Z,-23520.47
2023-10-18T08:49:24.151Z,-23496.88
2023-10-18T08:51:30.167Z,-23470.06
2023-10-18T08:53:37.393Z,-23452.16
2023-10-18T08:55:46.557Z,-23480.38
2023-10-18T08:57:56.816Z,-23477.84
2023-10-18T09:00:18.520Z,-23496.53
2023-10-18T09:02:22.922Z,-23534.88
2023-10-18T09:04:29.855Z,-23542.31
2023-10-18T09:06:33.043Z,-23550.38
2023-10-18T09:08:43.483Z,-23564.47
2023-10-18T09:10:50.988Z,-23540.72
2023-10-18T09:13:29.993Z,-23559.06
2023-10-18T09:15:48.727Z,-23538.03
2023-10-18T09:17:55.680Z,-23553.69
2023-10-18T09:20:00.000Z,-23586.91
2023-10-18T09:22:03.729Z,-23562.09
2023-10-18T09:24:08.561Z,-23602.06
2023-10-18T09:26:14.362Z,-23592.91
2023-10-18T09:28:21.931Z,-23597.19
2023-10-18T09:30:27.075Z,-23581.22
2023-10-18T09:32:34.468Z,-23620.72
2023-10-18T09:34:39.648Z,-23606.19
2023-10-18T09:36:54.377Z,-23578.38
2023-10-18T09:38:58.666Z,-23604.13
2023-10-18T09:41:02.847Z,-23561.59
2023-10-18T09:43:05.866Z,-23585.81
2023-10-18T09:45:09.725Z,-23566.66
2023-10-18T09:47:13.173Z,-23557.81
2023-10-18T09:49:22.668Z,-23583.13
2023-10-18T09:51:25.840Z,-23550.53
2023-10-18T09:53:31.879Z,-23549.91
2023-10-18T09:55:36.525Z,-23560.19
2023-10-18T09:57:42.569Z,-23553.06
2023-10-18T09:59:48.660Z,-23546.44
2023-10-18T10:02:08.807Z,-23532.50
2023-10-18T10:04:15.146Z,-23527.91
2023-10-18T10:06:22.214Z,-23541.03
2023-10-18T10:08:25.761Z,-23523.00
2023-10-18T10:10:44.651Z,-23544.53
2023-10-18T10:12:58.316Z,-23533.44
2023-10-18T10:15:01.057Z,-23542.63
2023-10-18T10:17:08.859Z,-23538.84
2023-10-18T10:19:14.224Z,-23534.56
2023-10-18T10:21:22.340Z,-23539.78
2023-10-18T10:23:25.441Z,-23542.31
2023-10-18T10:25:38.728Z,-23536.44
2023-10-18T10:27:59.418Z,-23544.69
2023-10-18T10:30:04.775Z,-23556.22
2023-10-18T10:32:07.642Z,-23552.13
2023-10-18T10:34:16.361Z,-23552.44
2023-10-18T10:36:20.627Z,-23574.56
2023-10-18T10:38:27.856Z,-23571.09
2023-10-18T10:40:37.672Z,-23595.13
2023-10-18T10:42:47.896Z,-23606.19
2023-10-18T10:44:58.220Z,-23594.81
2023-10-18T10:47:32.122Z,-23602.06
2023-10-18T10:49:49.928Z,-23604.91
2023-10-18T10:51:57.820Z,-23603.34
2023-10-18T10:54:02.348Z,-23600.03
2023-10-18T10:56:18.196Z,-23615.66
2023-10-18T10:58:23.324Z,-23610.59
2023-10-18T11:00:39.679Z,-23598.91
2023-10-18T11:02:47.085Z,-23610.75
2023-10-18T11:04:59.179Z,-23600.66
2023-10-18T11:07:05.224Z,-23611.72
2023-10-18T11:09:09.671Z,-23628.13
2023-10-18T11:11:14.979Z,-23630.34
2023-10-18T11:13:23.992Z,-23626.53
2023-10-18T11:15:29.051Z,-23616.91
2023-10-18T11:17:31.163Z,-23621.34
2023-10-18T11:19:34.098Z,-23626.72
2023-10-18T11:21:39.359Z,-23624.81
2023-10-18T11:23:42.597Z,-23636.34
2023-10-18T11:25:46.883Z,-23624.34
2023-10-18T11:27:49.639Z,-23603.34
2023-10-18T11:29:57.055Z,-23618.50
2023-10-18T11:32:01.500Z,-23618.66
2023-10-18T11:34:07.626Z,-23619.59
2023-10-18T11:36:10.065Z,-23630.97
2023-10-18T11:38:13.864Z,-23612.19
2023-10-18T11:40:17.251Z,-23621.19
2023-10-18T11:42:20.424Z,-23615.03
2023-10-18T11:44:32.790Z,-23613.91
2023-10-18T11:46:48.691Z,-23614.38
2023-10-18T11:48:56.136Z,-23608.38
2023-10-18T11:51:00.415Z,-23618.50
2023-10-18T11:53:09.906Z,-23619.13
2023-10-18T11:55:12.649Z,-23623.88
2023-10-18T11:57:30.972Z,-23627.34
2023-10-18T11:59:52.537Z,-23637.44
2023-10-18T12:01:55.870Z,-23627.97
2023-10-18T12:04:00.317Z,-23624.34
2023-10-18T12:06:04.508Z,-23635.69
2023-10-18T12:08:13.586Z,-23630.50
2023-10-18T12:10:18.185Z,-23624.97
2023-10-18T12:12:21.468Z,-23615.66
2023-10-18T12:14:23.948Z,-23623.56
2023-10-18T12:16:26.934Z,-23632.06
2023-10-18T12:18:30.310Z,-23627.81
2023-10-18T12:20:38.003Z,-23627.97
2023-10-18T12:22:43.786Z,-23633.50
2023-10-18T12:24:45.863Z,-23629.25
2023-10-18T12:26:54.859Z,-23633.34
2023-10-18T12:28:58.170Z,-23627.50
2023-10-18T12:31:02.584Z,-23625.28
2023-10-18T12:33:07.463Z,-23623.22
2023-10-18T12:35:14.473Z,-23615.66
2023-10-18T12:37:19.669Z,-23627.97
2023-10-18T12:39:23.220Z,-23632.06
2023-10-18T12:41:32.838Z,-23628.75
2023-10-18T12:43:40.729Z,-23623.56
2023-10-18T12:45:44.309Z,-23617.88
2023-10-18T12:47:48.920Z,-23622.13
2023-10-18T12:49:52.839Z,-23624.81
2023-10-18T12:52:02.133Z,-23627.19
2023-10-18T12:54:07.045Z,-23624.50
2023-10-18T12:56:27.405Z,-23623.22
2023-10-18T12:58:31.863Z,-23612.50
2023-10-18T13:00:43.980Z,-23616.91
2023-10-18T13:02:52.340Z,-23610.91
2023-10-18T13:05:01.070Z,-23610.75
2023-10-18T13:07:20.539Z,-23605.84
2023-10-18T13:09:24.210Z,-23609.97
2023-10-18T13:11:44.406Z,-23615.50
2023-10-18T13:13:48.022Z,-23604.44
2023-10-18T13:15:49.998Z,-23611.22
2023-10-18T13:17:53.325Z,-23613.59
2023-10-18T13:19:58.584Z,-23619.13
2023-10-18T13:22:05.643Z,-23619.91
2023-10-18T13:24:18.979Z,-23615.34
2023-10-18T13:26:28.275Z,-23617.53
2023-10-18T13:28:35.548Z,-23624.19
2023-10-18T13:30:44.482Z,-23619.75
2023-10-18T13:32:47.416Z,-23615.50
2023-10-18T13:34:50.219Z,-23607.13
2023-10-18T13:36:54.216Z,-23610.13
2023-10-18T13:38:57.002Z,-23604.28
2023-10-18T13:41:01.751Z,-23604.28
2023-10-18T13:43:06.332Z,-23601.13
2023-10-18T13:45:11.858Z,-23602.53
2023-10-18T13:47:14.802Z,-23601.13
2023-10-18T13:49:18.365Z,-23598.59
2023-10-18T13:51:22.255Z,-23595.44
2023-10-18T13:53:25.088Z,-23594.81
2023-10-18T13:55:27.867Z,-23588.63
2023-10-18T13:57:31.961Z,-23590.69
2023-10-18T13:59:39.326Z,-23590.22
2023-10-18T14:01:43.703Z,-23585.16
2023-10-18T14:03:48.920Z,-23585.00
2023-10-18T14:05:51.889Z,-23582.47
2023-10-18T14:07:54.631Z,-23580.59
2023-10-18T14:09:57.358Z,-23576.78
2023-10-18T14:12:02.266Z,-23572.84
2023-10-18T14:14:05.057Z,-23575.69
2023-10-18T14:16:13.408Z,-23574.25
2023-10-18T14:18:16.819Z,-23572.69
2023-10-18T14:20:26.092Z,-23570.47
2023-10-18T14:22:28.862Z,-23568.41
2023-10-18T14:24:33.033Z,-23566.66
2023-10-18T14:26:37.955Z,-23565.25
2023-10-18T14:28:42.019Z,-23566.03
2023-10-18T14:30:47.968Z,-23563.81
2023-10-18T14:32:52.276Z,-23563.50
2023-10-18T14:34:55.315Z,-23565.09
2023-10-18T14:36:58.163Z,-23564.13
2023-10-18T14:39:00.067Z,-23564.63
2023-10-18T14:41:09.210Z,-23561.94
2023-10-18T14:43:17.135Z,-23564.28
2023-10-18T14:45:18.795Z,-23563.19
2023-10-18T14:47:21.585Z,-23568.25
2023-10-18T14:49:25.806Z,-23568.72
2023-10-18T14:51:28.650Z,-23563.81
2023-10-18T14:53:32.388Z,-23560.03
2023-10-18T14:55:38.808Z,-23559.06
2023-10-18T14:57:42.045Z,-23551.47
2023-10-18T14:59:44.856Z,-23552.75
2023-10-18T15:01:47.607Z,-23547.69
2023-10-18T15:03:51.518Z,-23540.25
2023-10-18T15:05:55.899Z,-23537.72
2023-10-18T15:07:59.342Z,-23534.72
2023-10-18T15:10:03.257Z,-23527.75
2023-10-18T15:12:07.557Z,-23528.84
2023-10-18T15:14:12.882Z,-23529.97
2023-10-18T15:16:16.812Z,-23524.56
2023-10-18T15:18:19.572Z,-23531.22
2023-10-18T15:20:23.304Z,-23533.44
2023-10-18T15:22:27.644Z,-23529.34
2023-10-18T15:24:30.694Z,-23529.34
2023-10-18T15:26:39.253Z,-23522.38
2023-10-18T15:28:42.033Z,-23520.16
2023-10-18T15:30:44.823Z,-23521.88
2023-10-18T15:32:47.660Z,-23521.09
2023-10-18T15:34:51.292Z,-23522.38
2023-10-18T15:36:55.278Z,-23523.00
2023-10-18T15:39:00.461Z,-23515.25
2023-10-18T15:41:06.625Z,-23512.38
2023-10-18T15:43:10.878Z,-23506.84
2023-10-18T15:45:13.748Z,-23513.81
2023-10-18T15:47:16.460Z,-23507.47
2023-10-18T15:49:19.385Z,-23509.22
2023-10-18T15:51:23.157Z,-23511.59
2023-10-18T15:53:30.270Z,-23505.91
2023-10-18T15:55:37.017Z,-23504.47
2023-10-18T15:57:39.764Z,-23504.16
2023-10-18T15:59:42.511Z,-23501.94
2023-10-18T16:01:57.951Z,-23495.13
2023-10-18T16:04:03.127Z,-23500.03
2023-10-18T16:06:06.357Z,-23498.28
2023-10-18T16:08:09.279Z,-23497.34
2023-10-18T16:10:13.990Z,-23491.94
2023-10-18T16:12:18.445Z,-23497.81
2023-10-18T16:14:20.221Z,-23496.38
2023-10-18T16:16:25.719Z,-23494.50
2023-10-18T16:18:29.762Z,-23496.53
2023-10-18T16:20:32.637Z,-23495.28
2023-10-18T16:22:35.454Z,-23493.38
2023-10-18T16:24:39.941Z,-23491.94
2023-10-18T16:26:42.722Z,-23494.16
2023-10-18T16:28:47.503Z,-23491.47
2023-10-18T16:30:50.310Z,-23492.59
2023-10-18T16:32:56.109Z,-23492.59
2023-10-18T16:34:59.026Z,-23488.16
2023-10-18T16:37:03.515Z,-23490.38
2023-10-18T16:39:06.615Z,-23490.38
2023-10-18T16:41:09.650Z,-23488.16
2023-10-18T16:43:12.679Z,-23489.72
2023-10-18T16:45:17.830Z,-23486.88
2023-10-18T16:47:22.442Z,-23485.75
2023-10-18T16:49:25.316Z,-23484.03
2023-10-18T16:51:27.078Z,-23484.97
2023-10-18T16:53:29.921Z,-23478.31
2023-10-18T16:55:35.229Z,-23480.84
2023-10-18T16:57:37.100Z,-23477.84
2023-10-18T16:59:39.964Z,-23476.41
2023-10-18T17:01:44.484Z,-23477.69
2023-10-18T17:03:49.099Z,-23476.41
2023-10-18T17:05:56.340Z,-23475.78
2023-10-18T17:08:00.217Z,-23478.31
2023-10-18T17:10:02.999Z,-23475.16
2023-10-18T17:12:07.130Z,-23479.59
2023-10-18T17:14:16.004Z,-23472.59
2023-10-18T17:16:19.132Z,-23475.63
2023-10-18T17:18:23.816Z,-23468.00
2023-10-18T17:20:27.942Z,-23472.91
2023-10-18T17:22:32.200Z,-23467.22
2023-10-18T17:24:34.927Z,-23466.91
2023-10-18T17:26:38.727Z,-23469.75
2023-10-18T17:28:41.471Z,-23466.25
2023-10-18T17:30:44.267Z,-23465.63
2023-10-18T17:32:47.219Z,-23466.44
2023-10-18T17:34:51.470Z,-23469.44
2023-10-18T17:36:54.477Z,-23470.22
2023-10-18T17:38:57.288Z,-23468.16
2023-10-18T17:41:00.839Z,-23472.91
2023-10-18T17:43:05.466Z,-23470.06
2023-10-18T17:45:11.171Z,-23472.28
2023-10-18T17:47:15.194Z,-23472.28
2023-10-18T17:49:19.456Z,-23467.22
2023-10-18T17:51:23.939Z,-23473.88
2023-10-18T17:53:25.617Z,-23464.03
2023-10-18T17:55:28.532Z,-23466.25
2023-10-18T17:57:35.390Z,-23475.63
2023-10-18T17:59:41.076Z,-23478.63
2023-10-18T18:01:43.923Z,-23475.78
2023-10-18T18:03:46.873Z,-23471.34
2023-10-18T18:05:50.465Z,-23469.44
2023-10-18T18:07:55.621Z,-23471.03
2023-10-18T18:09:58.591Z,-23473.25
2023-10-18T18:12:01.299Z,-23470.69
2023-10-18T18:14:07.234Z,-23470.38
2023-10-18T18:16:10.359Z,-23465.94
2023-10-18T18:18:14.069Z,-23471.50
2023-10-18T18:20:20.473Z,-23467.84
2023-10-18T18:22:24.640Z,-23471.34
2023-10-18T18:24:28.706Z,-23472.28
2023-10-18T18:26:31.438Z,-23470.06
2023-10-18T18:28:34.280Z,-23469.91
2023-10-18T18:30:36.969Z,-23467.22
2023-10-18T18:32:40.562Z,-23468.50
2023-10-18T18:34:45.285Z,-23471.66
2023-10-18T18:36:48.048Z,-23467.06
2023-10-18T18:38:50.780Z,-23468.97
2023-10-18T18:40:55.124Z,-23469.28
2023-10-18T18:42:58.074Z,-23473.25
2023-10-18T18:45:00.937Z,-23475.47
2023-10-18T18:47:03.824Z,-23471.03
2023-10-18T18:49:07.764Z,-23469.75
2023-10-18T18:51:12.264Z,-23471.19
2023-10-18T18:53:15.091Z,-23467.06
2023-10-18T18:55:18.452Z,-23466.25
2023-10-18T18:57:22.461Z,-23465.47
2023-10-18T18:59:25.199Z,-23467.06
2023-10-18T19:01:28.000Z,-23467.84
2023-10-18T19:03:31.069Z,-23469.28
2023-10-18T19:05:34.577Z,-23471.97
2023-10-18T19:07:37.379Z,-23471.34
2023-10-18T19:09:40.605Z,-23473.88
2023-10-18T19:11:43.685Z,-23476.09
2023-10-18T19:13:47.875Z,-23479.25
2023-10-18T19:15:50.573Z,-23478.00
2023-10-18T19:17:53.398Z,-23478.78
2023-10-18T19:19:56.174Z,-23476.09
2023-10-18T19:21:59.617Z,-23478.78
2023-10-18T19:24:02.527Z,-23480.06
2023-10-18T19:26:09.515Z,-23478.00
2023-10-18T19:28:12.239Z,-23479.91
2023-10-18T19:30:17.680Z,-23480.69
2023-10-18T19:32:20.414Z,-23472.44
2023-10-18T19:34:24.150Z,-23472.91
2023-10-18T19:36:26.881Z,-23471.97
2023-10-18T19:38:29.587Z,-23466.91
2023-10-18T19:40:32.709Z,-23466.44
2023-10-18T19:42:35.687Z,-23464.03
2023-10-18T19:44:38.435Z,-23466.91
2023-10-18T19:46:42.541Z,-23464.03
2023-10-18T19:48:45.319Z,-23464.19
2023-10-18T19:50:48.338Z,-23465.63
2023-10-18T19:52:54.152Z,-23465.16
2023-10-18T19:54:57.965Z,-23463.72
2023-10-18T19:57:01.800Z,-23464.38
2023-10-18T19:59:04.938Z,-23462.13
2023-10-18T20:01:08.242Z,-23465.31
2023-10-18T20:03:14.817Z,-23464.69
2023-10-18T20:05:17.757Z,-23465.00
2023-10-18T20:07:20.516Z,-23465.94
2023-10-18T20:09:23.214Z,-23469.44
2023-10-18T20:11:26.035Z,-23467.84
2023-10-18T20:13:32.203Z,-23468.50
2023-10-18T20:15:35.900Z,-23469.44
2023-10-18T20:17:38.798Z,-23465.63
2023-10-18T20:19:42.974Z,-23467.06
2023-10-18T20:21:46.204Z,-23468.16
2023-10-18T20:23:48.974Z,-23471.50
2023-10-18T20:25:58.522Z,-23475.47
2023-10-18T20:28:01.301Z,-23475.47
2023-10-18T20:30:07.131Z,-23478.94
2023-10-18T20:32:09.925Z,-23471.66
2023-10-18T20:34:12.730Z,-23474.50
2023-10-18T20:36:17.102Z,-23475.78
2023-10-18T20:38:19.853Z,-23478.78
2023-10-18T20:40:22.768Z,-23478.94
2023-10-18T20:42:25.882Z,-23478.63
2023-10-18T20:44:28.767Z,-23480.53
2023-10-18T20:46:33.354Z,-23484.03
2023-10-18T20:48:36.024Z,-23481.81
2023-10-18T20:50:41.169Z,-23483.38
2023-10-18T20:52:46.954Z,-23483.38
2023-10-18T20:54:50.014Z,-23484.97
2023-10-18T20:57:11.040Z,-23483.38
2023-10-18T20:59:16.094Z,-23483.84
2023-10-18T21:01:22.978Z,-23486.25
2023-10-18T21:03:26.353Z,-23487.19
2023-10-18T21:05:30.285Z,-23488.47
2023-10-18T21:07:33.031Z,-23491.00
2023-10-18T21:09:37.043Z,-23489.25
2023-10-18T21:11:39.752Z,-23491.63
2023-10-18T21:13:43.295Z,-23492.75
2023-10-18T21:15:45.945Z,-23492.09
2023-10-18T21:17:49.359Z,-23494.50
2023-10-18T21:19:52.102Z,-23494.00
2023-10-18T21:21:54.883Z,-23492.91
2023-10-18T21:23:57.743Z,-23495.59
2023-10-18T21:26:02.463Z,-23493.22
2023-10-18T21:28:06.444Z,-23489.72
2023-10-18T21:30:11.910Z,-23490.38
2023-10-18T21:32:14.800Z,-23491.47
2023-10-18T21:34:17.714Z,-23496.72
2023-10-18T21:36:20.846Z,-23493.69
2023-10-18T21:38:22.758Z,-23492.91
2023-10-18T21:40:25.788Z,-23492.44
2023-10-18T21:42:30.120Z,-23491.94
2023-10-18T21:44:33.083Z,-23495.13
2023-10-18T21:46:36.473Z,-23494.81
2023-10-18T21:48:40.026Z,-23494.81
2023-10-18T21:50:41.766Z,-23494.16
2023-10-18T21:52:44.532Z,-23493.22
2023-10-18T21:54:46.311Z,-23492.75
2023-10-18T21:56:49.006Z,-23499.56
2023-10-18T21:58:53.084Z,-23495.44
2023-10-18T22:00:56.887Z,-23499.56
2023-10-18T22:03:02.504Z,-23502.09
2023-10-18T22:05:05.924Z,-23502.25
2023-10-18T22:07:07.721Z,-23498.44
2023-10-18T22:09:25.401Z,-23496.72
2023-10-18T22:11:31.546Z,-23502.09
2023-10-18T22:13:34.798Z,-23498.59
2023-10-18T22:15:47.988Z,-23495.44
2023-10-18T22:17:52.090Z,-23497.97
2023-10-18T22:19:58.809Z,-23501.47
2023-10-18T22:22:12.504Z,-23494.81
2023-10-18T22:24:21.133Z,-23496.06
2023-10-18T22:26:29.242Z,-23500.03
2023-10-18T22:28:31.954Z,-23494.97
2023-10-18T22:30:38.109Z,-23500.50
2023-10-18T22:32:42.454Z,-23494.16
2023-10-18T22:34:47.390Z,-23490.22
2023-10-18T22:36:50.299Z,-23490.03
2023-10-18T22:38:53.358Z,-23490.03
2023-10-18T22:41:11.732Z,-23495.91
2023-10-18T22:43:14.606Z,-23497.97
2023-10-18T22:45:27.793Z,-23494.97
2023-10-18T22:47:38.017Z,-23496.53
2023-10-18T22:49:43.151Z,-23494.00
2023-10-18T22:51:48.379Z,-23494.81
2023-10-18T22:53:53.326Z,-23493.53
2023-10-18T22:55:58.460Z,-23495.91
2023-10-18T22:58:01.259Z,-23496.38
2023-10-18T23:00:09.222Z,-23494.31
2023-10-18T23:02:12.088Z,-23494.81
2023-10-18T23:04:15.921Z,-23490.38
2023-10-18T23:06:22.216Z,-23493.38
2023-10-18T23:08:27.855Z,-23493.53
2023-10-18T23:10:50.178Z,-23490.03
2023-10-18T23:12:55.552Z,-23491.63
2023-10-18T23:15:03.774Z,-23492.25
2023-10-18T23:17:11.043Z,-23495.28
2023-10-18T23:19:32.678Z,-23496.53
2023-10-18T23:21:42.593Z,-23494.00
2023-10-18T23:23:55.629Z,-23493.69
2023-10-18T23:26:19.215Z,-23490.69
2023-10-18T23:28:31.594Z,-23489.41
2023-10-18T23:30:40.024Z,-23493.84
2023-10-18T23:32:53.640Z,-23492.91
2023-10-18T23:34:56.680Z,-23490.03
2023-10-18T23:37:13.214Z,-23493.53
2023-10-18T23:39:16.152Z,-23491.47
2023-10-18T23:41:29.891Z,-23488.47
2023-10-18T23:43:49.240Z,-23490.03
2023-10-18T23:45:58.021Z,-23487.19
2023-10-18T23:48:28.767Z,-23488.47
2023-10-18T23:50:35.201Z,-23489.72
2023-10-18T23:52:49.900Z,-23490.84
2023-10-18T23:54:56.297Z,-23495.44
2023-10-18T23:57:01.631Z,-23493.53